createdAt,value
2023-02-16T00:18:25.863Z,18.6
2023-02-16T00:48:25.936Z,18.5
2023-02-16T01:18:25.863Z,18.4
2023-02-16T01:48:25.869Z,18.3
2023-02-16T02:18:25.594Z,18.3
2023-02-16T02:48:25.909Z,18.2
2023-02-16T03:18:25.886Z,18.1
2023-02-16T03:48:25.915Z,18.0
2023-02-16T04:18:25.877Z,18.0
2023-02-16T04:48:25.912Z,18.2
2023-02-16T05:18:25.913Z,18.5
2023-02-16T05:48:25.648Z,18.5
2023-02-16T06:18:25.912Z,18.9
2023-02-16T06:48:25.875Z,19.0
2023-02-16T07:18:26.048Z,19.1
2023-02-16T07:48:25.807Z,19.1
2023-02-16T08:18:25.906Z,19.5
2023-02-16T08:48:25.974Z,19.7
2023-02-16T09:18:26.047Z,19.8
2023-02-16T09:48:25.892Z,19.8
2023-02-16T10:18:25.912Z,19.8
2023-02-16T10:48:25.905Z,19.8
2023-02-16T11:18:25.958Z,19.8
2023-02-16T11:48:25.878Z,19.6
2023-02-16T12:18:25.882Z,19.6
2023-02-16T12:48:25.900Z,19.5
2023-02-16T13:18:25.867Z,19.6
2023-02-16T13:48:26.010Z,19.5
2023-02-16T14:18:25.940Z,19.5
2023-02-16T14:48:25.877Z,19.5
2023-02-16T15:18:25.644Z,19.5
2023-02-16T15:48:25.634Z,19.6
2023-02-16T16:18:25.861Z,19.6
2023-02-16T16:48:25.974Z,19.6
2023-02-16T17:18:25.991Z,19.6
2023-02-16T17:48:25.878Z,19.6
2023-02-16T18:18:25.938Z,19.6
2023-02-16T18:48:25.871Z,19.6
2023-02-16T19:18:25.960Z,19.7
2023-02-16T19:48:25.851Z,19.6
2023-02-16T20:18:25.588Z,19.6
2023-02-16T20:48:25.974Z,19.5
2023-02-16T21:18:25.991Z,19.4
2023-02-16T21:48:25.866Z,19.3
2023-02-16T22:18:26.009Z,19.3
2023-02-16T22:48:25.828Z,19.1
2023-02-16T23:18:25.870Z,19.0
2023-02-16T23:48:25.831Z,19.0
